Time;durP1;ratioP1;P1;durP2;ratioP2;P2;SDS_P1;SDS_P2;PMS_P1;PMS_P2;Temp;Humidity;BMP_temperature;BMP_pressure;BME280_temperature;BME280_humidity;BME280_pressure;Samples;Min_cycle;Max_cycle;Signal;HPM_P1;HPM_P2
2024/02/17 00:00:45;;;;;;;16.30;12.30;;;;;;;9.85;84.15;100986.38;103712;1297;24726;-60
2024/02/17 00:03:12;;;;;;;17.30;13.80;;;;;;;9.82;83.52;100985.73;103618;1286;26774;-57
2024/02/17 00:05:40;;;;;;;;;;;;;;;9.78;83.36;100987.64;103934;1309;22576;-60
2024/02/17 00:08:06;;;;;;;16.90;12.30;;;;;;;9.73;83.77;100992.50;103905;1310;24476;-58
2024/02/17 00:10:32;;;;;;;17.20;13.20;;;;;;;9.72;84.09;100990.09;103958;1298;22560;-58
2024/02/17 00:12:57;;;;;;;16.40;12.30;;;;;;;9.72;83.86;100987.52;103865;1307;22584;-56
2024/02/17 00:15:23;;;;;;;18.90;12.50;;;;;;;9.69;84.56;100989.94;103827;1291;22592;-58
2024/02/17 00:17:48;;;;;;;16.60;12.20;;;;;;;9.66;85.05;100995.81;103949;1308;26612;-60
2024/02/17 00:20:14;;;;;;;17.80;13.10;;;;;;;9.61;84.74;101000.99;103974;1309;23276;-60
2024/02/17 00:22:41;;;;;;;19.90;13.40;;;;;;;9.59;86.50;101003.42;103909;1307;22814;-59
2024/02/17 00:25:07;;;;;;;22.30;14.10;;;;;;;9.63;85.36;101007.19;103855;1292;22560;-60
2024/02/17 00:27:33;;;;;;;20.00;13.80;;;;;;;9.60;84.46;100996.53;105402;1304;24248;-59
2024/02/17 00:29:58;;;;;;;17.90;13.50;;;;;;;9.59;83.84;100978.64;103945;1309;22583;-60
2024/02/17 00:32:24;;;;;;;17.30;12.70;;;;;;;9.60;83.51;100984.48;103907;1305;23880;-60
2024/02/17 00:34:49;;;;;;;17.10;13.30;;;;;;;9.62;85.05;100999.45;103882;1302;23170;-59
2024/02/17 00:37:15;;;;;;;17.30;12.20;;;;;;;9.59;87.35;101004.80;103835;1308;22681;-58
2024/02/17 00:39:41;;;;;;;20.90;13.70;;;;;;;9.57;88.86;101002.91;103914;1309;22582;-59
2024/02/17 00:42:07;;;;;;;15.30;12.70;;;;;;;9.55;86.18;101012.40;103888;1295;25310;-59
2024/02/17 00:44:34;;;;;;;18.90;13.40;;;;;;;9.55;87.24;101019.45;103930;1292;22715;-62
2024/02/17 00:46:59;;;;;;;;;;;;;;;9.55;87.53;101021.34;103932;1310;23164;-58
2024/02/17 00:49:25;;;;;;;18.90;13.10;;;;;;;9.55;85.96;101014.29;103976;1308;22564;-60
2024/02/17 00:51:50;;;;;;;17.60;13.60;;;;;;;9.56;85.87;101015.48;103933;1309;23426;-59
2024/02/17 00:54:16;;;;;;;16.60;13.80;;;;;;;9.54;85.26;101006.38;104028;1286;22775;-60
2024/02/17 00:56:41;;;;;;;20.30;14.50;;;;;;;9.54;85.90;101009.64;104038;1310;22551;-59
2024/02/17 00:59:07;;;;;;;22.70;14.60;;;;;;;9.54;87.49;101016.88;103957;1310;22555;-59
2024/02/17 01:01:32;;;;;;;16.10;13.20;;;;;;;9.56;87.09;101022.54;104085;1302;22559;-60
2024/02/17 01:03:58;;;;;;;19.40;14.00;;;;;;;9.55;87.83;101026.34;104017;1309;22718;-59
2024/02/17 01:06:24;;;;;;;18.60;14.60;;;;;;;9.53;86.51;101029.09;103877;1304;22556;-60
2024/02/17 01:08:50;;;;;;;18.60;14.20;;;;;;;9.56;87.02;101031.49;103898;1308;24388;-60
2024/02/17 01:11:17;;;;;;;20.70;14.10;;;;;;;9.56;87.42;101033.21;103878;1308;22554;-58
2024/02/17 01:13:43;;;;;;;18.90;14.10;;;;;;;9.54;88.71;101037.52;103663;1310;22740;-60
2024/02/17 01:16:13;;;;;;;20.50;15.60;;;;;;;9.54;90.55;101037.52;103647;1293;24219;-65
2024/02/17 01:18:39;;;;;;;20.70;15.80;;;;;;;9.56;88.94;101046.80;103848;1300;22701;-59
2024/02/17 01:21:04;;;;;;;21.50;15.30;;;;;;;9.54;88.15;101054.73;103746;1310;22585;-60
2024/02/17 01:23:30;;;;;;;21.40;16.10;;;;;;;9.56;89.63;101055.77;107207;1307;23062;-59
2024/02/17 01:25:56;;;;;;;21.80;14.90;;;;;;;9.59;89.30;101059.02;104800;1291;22590;-60
2024/02/17 01:28:22;;;;;;;22.00;16.10;;;;;;;9.60;88.61;101057.11;103807;1308;22649;-62
2024/02/17 01:30:47;;;;;;;25.50;16.70;;;;;;;9.62;88.92;101046.27;103776;1304;22574;-58
2024/02/17 01:33:13;;;;;;;22.60;15.70;;;;;;;9.60;88.26;101032.67;103783;1303;22615;-59
2024/02/17 01:35:38;;;;;;;20.40;14.80;;;;;;;9.63;88.91;101034.73;103800;1304;22564;-58
2024/02/17 01:38:07;;;;;;;23.60;16.10;;;;;;;9.61;88.70;101042.31;103793;1306;25431;-59
2024/02/17 01:40:33;;;;;;;21.40;15.30;;;;;;;9.60;89.85;101051.95;105287;1310;22742;-59
2024/02/17 01:42:59;;;;;;;19.20;14.60;;;;;;;9.63;89.02;101049.19;106713;1310;25527;-59
2024/02/17 01:45:25;;;;;;;21.90;15.50;;;;;;;9.64;89.26;101047.46;103728;1289;23853;-60
2024/02/17 01:47:51;;;;;;;24.20;16.40;;;;;;;9.66;89.83;101052.61;103768;1305;22604;-61
2024/02/17 01:50:17;;;;;;;20.00;16.30;;;;;;;9.67;89.82;101056.92;103636;1310;24818;-59
2024/02/17 01:52:44;;;;;;;23.50;17.20;;;;;;;9.69;90.06;101056.91;103727;1310;22772;-60
2024/02/17 01:55:10;;;;;;;21.40;16.50;;;;;;;9.71;89.85;101061.89;103831;1297;22558;-58
2024/02/17 01:57:36;;;;;;;21.60;14.90;;;;;;;9.74;89.88;101065.14;103649;1294;22590;-60
2024/02/17 02:00:04;;;;;;;20.30;16.40;;;;;;;9.75;89.72;101069.78;103794;1311;25262;-60
2024/02/17 02:02:31;;;;;;;21.10;15.00;;;;;;;9.77;90.44;101077.00;104528;1311;25540;-60
2024/02/17 02:04:56;;;;;;;;;;;;;;;9.79;90.00;101076.30;103840;1310;26575;-58
2024/02/17 02:07:22;;;;;;;22.00;16.00;;;;;;;9.79;91.30;101074.23;103862;1310;22559;-57
2024/02/17 02:09:48;;;;;;;20.60;15.50;;;;;;;9.79;90.65;101079.92;103886;1307;24279;-59
2024/02/17 02:12:13;;;;;;;19.60;17.30;;;;;;;9.78;90.14;101076.31;103819;1310;22565;-60
2024/02/17 02:14:39;;;;;;;22.20;16.10;;;;;;;9.81;89.99;101077.84;103958;1308;23384;-57
2024/02/17 02:17:04;;;;;;;18.90;15.50;;;;;;;9.84;90.59;101080.58;104062;1291;23182;-60
2024/02/17 02:19:30;;;;;;;20.50;15.60;;;;;;;9.85;91.33;101078.50;103949;1304;25641;-59
2024/02/17 02:21:56;;;;;;;18.70;15.50;;;;;;;9.87;91.71;101077.80;103909;1307;22591;-60
2024/02/17 02:24:22;;;;;;;18.70;16.00;;;;;;;9.89;92.12;101076.05;103922;1310;23222;-59
2024/02/17 02:26:48;;;;;;;21.60;16.20;;;;;;;9.89;92.20;101074.33;103971;1294;27415;-59
2024/02/17 02:29:13;;;;;;;18.60;16.50;;;;;;;9.90;92.08;101075.00;104067;1310;22650;-59
2024/02/17 02:31:40;;;;;;;22.20;16.10;;;;;;;9.88;91.94;101071.92;103976;1308;26150;-59
2024/02/17 02:34:05;;;;;;;21.70;17.00;;;;;;;9.86;93.63;101073.86;103998;1310;24277;-59
2024/02/17 02:36:31;;;;;;;19.70;16.30;;;;;;;9.88;92.80;101073.98;103835;1292;23074;-59
2024/02/17 02:38:57;;;;;;;20.10;16.50;;;;;;;9.87;93.06;101069.36;103905;1298;22815;-59
2024/02/17 02:41:22;;;;;;;23.80;16.70;;;;;;;9.90;92.32;101065.54;103888;1309;24061;-58
2024/02/17 02:43:49;;;;;;;19.10;16.00;;;;;;;9.87;92.81;101067.97;103855;1307;24294;-60
2024/02/17 02:46:17;;;;;;;19.80;17.10;;;;;;;9.88;92.95;101070.89;106171;1296;22830;-59
2024/02/17 02:48:43;;;;;;;21.40;17.80;;;;;;;9.87;93.68;101073.50;103663;1310;22581;-59
2024/02/17 02:51:08;;;;;;;20.40;17.50;;;;;;;9.89;92.37;101073.64;103658;1310;25119;-59
2024/02/17 02:53:34;;;;;;;23.90;16.90;;;;;;;9.90;92.03;101079.66;103798;1310;24266;-60
2024/02/17 02:55:59;;;;;;;23.60;18.30;;;;;;;9.89;93.09;101078.45;103982;1310;25418;-60
2024/02/17 02:58:25;;;;;;;21.80;18.40;;;;;;;9.88;93.44;101075.20;103860;1296;22927;-60
2024/02/17 03:00:51;;;;;;;22.20;17.50;;;;;;;9.88;92.63;101074.50;103956;1310;22562;-57
2024/02/17 03:03:17;;;;;;;20.00;17.80;;;;;;;9.88;93.57;101077.09;103579;1310;22705;-58
2024/02/17 03:05:43;;;;;;;20.90;16.20;;;;;;;9.86;93.55;101081.95;103647;1305;23265;-58
2024/02/17 03:08:09;;;;;;;20.10;17.50;;;;;;;9.90;93.39;101087.23;103802;1292;25249;-59
2024/02/17 03:10:34;;;;;;;22.40;18.30;;;;;;;9.91;93.69;101092.39;104005;1308;22585;-59
2024/02/17 03:13:00;;;;;;;21.60;17.40;;;;;;;9.92;94.28;101091.19;103938;1310;22685;-60
2024/02/17 03:15:25;;;;;;;18.90;16.80;;;;;;;9.93;94.48;101086.70;103845;1310;22587;-60
2024/02/17 03:17:54;;;;;;;23.10;18.40;;;;;;;9.93;95.58;101077.92;103906;1301;23588;-60
2024/02/17 03:20:20;;;;;;;21.80;17.80;;;;;;;9.91;96.63;101070.35;103798;1310;22563;-58
2024/02/17 03:22:46;;;;;;;22.90;19.00;;;;;;;9.91;95.30;101069.48;103792;1309;22563;-60
2024/02/17 03:25:12;;;;;;;21.00;17.40;;;;;;;9.90;94.28;101078.45;103751;1310;22895;-60
2024/02/17 03:27:39;;;;;;;23.90;19.00;;;;;;;9.91;93.87;101096.17;103884;1300;25586;-60
2024/02/17 03:30:25;;;;;;;21.90;19.30;;;;;;;9.90;94.70;101106.52;107419;1309;22389;-58
2024/02/17 03:32:51;;;;;;;26.50;20.00;;;;;;;9.91;94.50;101113.58;107388;1309;22860;-60
2024/02/17 03:35:17;;;;;;;21.40;18.20;;;;;;;9.94;95.30;101115.97;107484;1305;22381;-60
2024/02/17 03:37:42;;;;;;;23.30;20.40;;;;;;;9.95;96.21;101111.48;105731;1302;22657;-60
2024/02/17 03:40:09;;;;;;;24.20;19.90;;;;;;;9.94;96.61;101105.64;103782;1310;25421;-59
2024/02/17 03:42:35;;;;;;;22.30;18.60;;;;;;;9.94;96.75;101104.61;107302;1310;22294;-61
2024/02/17 03:45:00;;;;;;;19.50;17.50;;;;;;;9.95;95.14;101123.71;107294;1310;22242;-61
2024/02/17 03:47:26;;;;;;;24.90;20.30;;;;;;;9.99;95.44;101132.83;107273;1292;22420;-59
2024/02/17 03:49:52;;;;;;;23.10;18.40;;;;;;;9.97;96.32;101138.17;107437;1305;22253;-60
2024/02/17 03:52:20;;;;;;;20.30;15.30;;;;;;;9.96;96.04;101139.38;107407;1310;22268;-59
2024/02/17 03:54:45;;;;;;;31.90;18.60;;;;;;;10.00;95.14;101134.19;107410;1309;22249;-59
2024/02/17 03:57:11;;;;;;;18.80;16.90;;;;;;;10.03;94.97;101136.77;104195;1309;22850;-58
2024/02/17 03:59:36;;;;;;;18.90;16.90;;;;;;;10.08;96.43;101146.73;103778;1307;23018;-60
2024/02/17 04:02:02;;;;;;;19.70;16.50;;;;;;;10.11;95.84;101142.40;103741;1310;22573;-58
2024/02/17 04:04:28;;;;;;;18.90;16.70;;;;;;;10.12;96.79;101148.09;103744;1302;24026;-60
2024/02/17 04:06:53;;;;;;;19.00;16.90;;;;;;;10.11;97.74;101147.40;103880;1310;24400;-60
2024/02/17 04:09:19;;;;;;;21.00;18.50;;;;;;;10.12;97.55;101152.56;103846;1299;22558;-60
2024/02/17 04:11:44;;;;;;;22.20;16.60;;;;;;;10.13;96.64;101165.48;103843;1304;24097;-61
2024/02/17 04:14:10;;;;;;;21.40;16.90;;;;;;;10.16;97.19;101167.36;103710;1307;208162;-60
2024/02/17 04:16:35;;;;;;;21.40;17.70;;;;;;;10.17;97.50;101172.17;103848;1308;23428;-59
2024/02/17 04:19:01;;;;;;;22.00;17.50;;;;;;;10.18;98.82;101175.46;103737;1301;22579;-60
2024/02/17 04:21:27;;;;;;;23.90;19.10;;;;;;;10.16;98.16;101172.70;103705;1310;22826;-61
2024/02/17 04:23:52;;;;;;;19.20;17.00;;;;;;;10.19;98.12;101177.19;103504;1310;22568;-60
2024/02/17 04:26:18;;;;;;;20.00;16.60;;;;;;;10.17;98.15;101178.21;103764;1310;22565;-58
2024/02/17 04:28:43;;;;;;;24.30;17.20;;;;;;;10.15;98.08;101174.26;103752;1301;25469;-59
2024/02/17 04:31:09;;;;;;;21.80;14.10;;;;;;;10.15;97.35;101175.11;103779;1310;22585;-59
2024/02/17 04:33:38;;;;;;;13.80;12.30;;;;;;;10.21;98.23;101171.50;103870;1303;23196;-59
2024/02/17 04:36:07;;;;;;;11.90;10.80;;;;;;;10.23;98.26;101184.23;103803;1307;22584;-58
2024/02/17 04:38:33;;;;;;;12.70;11.30;;;;;;;10.21;98.35;101193.37;103914;1295;22572;-59
2024/02/17 04:41:00;;;;;;;10.10;8.00;;;;;;;10.18;97.95;101191.30;104091;1310;25342;-60
2024/02/17 04:43:25;;;;;;;8.20;7.40;;;;;;;10.17;98.53;101186.15;103816;1311;25565;-60
2024/02/17 04:45:51;;;;;;;9.60;6.80;;;;;;;10.17;98.80;101184.92;103709;1310;22566;-60
2024/02/17 04:48:17;;;;;;;6.60;6.10;;;;;;;10.16;99.18;101193.89;103745;1310;23016;-60
2024/02/17 04:50:43;;;;;;;6.70;6.00;;;;;;;10.13;98.95;101194.08;106276;1302;23911;-58
2024/02/17 04:53:08;;;;;;;7.30;5.50;;;;;;;10.12;98.66;101190.64;103838;1310;22571;-60
2024/02/17 04:55:34;;;;;;;5.40;4.90;;;;;;;10.11;98.75;101206.66;103902;1310;22687;-54
2024/02/17 04:57:59;;;;;;;6.90;5.20;;;;;;;10.12;98.54;101213.89;103625;1310;23642;-58
2024/02/17 05:00:25;;;;;;;5.00;4.60;;;;;;;10.11;98.42;101216.31;103517;1310;22565;-58
2024/02/17 05:02:51;;;;;;;4.70;4.20;;;;;;;10.10;98.35;101214.94;103842;1307;22576;-59
2024/02/17 05:05:19;;;;;;;6.40;4.10;;;;;;;10.10;98.47;101221.83;103791;1310;24274;-59
2024/02/17 05:07:45;;;;;;;4.20;3.80;;;;;;;10.04;98.26;101225.80;103827;1310;23067;-58
2024/02/17 05:10:11;;;;;;;4.90;4.50;;;;;;;10.01;98.36;101226.34;103791;1301;26218;-57
2024/02/17 05:12:37;;;;;;;4.90;4.50;;;;;;;10.00;98.75;101228.59;103644;1301;22611;-59
2024/02/17 05:15:03;;;;;;;5.40;4.90;;;;;;;9.99;98.66;101232.55;103859;1310;22692;-59
2024/02/17 05:17:28;;;;;;;4.80;4.40;;;;;;;9.96;98.40;101235.30;103915;1310;22704;-60
2024/02/17 05:19:55;;;;;;;5.20;4.70;;;;;;;9.97;98.85;101233.77;103755;1292;23776;-58
2024/02/17 05:22:20;;;;;;;5.10;4.60;;;;;;;9.95;98.59;101235.32;103836;1311;23048;-60
2024/02/17 05:24:46;;;;;;;4.80;4.20;;;;;;;9.95;98.29;101245.98;103699;1311;23585;-59
2024/02/17 05:27:12;;;;;;;4.60;3.90;;;;;;;9.97;98.85;101244.96;103755;1295;22670;-59
2024/02/17 05:29:39;;;;;;;3.90;3.60;;;;;;;9.97;98.83;101245.30;103578;1292;23817;-60
2024/02/17 05:32:06;;;;;;;5.40;3.40;;;;;;;9.97;99.14;101253.23;103850;1310;22752;-59
2024/02/17 05:34:31;;;;;;;3.50;3.20;;;;;;;9.96;99.03;101247.02;105325;1310;22857;-60
2024/02/17 05:36:57;;;;;;;3.60;3.30;;;;;;;9.95;99.10;101251.52;103791;1310;24143;-60
2024/02/17 05:39:23;;;;;;;3.70;3.40;;;;;;;9.93;98.75;101255.13;103839;1310;22561;-60
2024/02/17 05:41:51;;;;;;;3.70;3.40;;;;;;;9.92;98.94;101254.79;103724;1301;22562;-60
2024/02/17 05:44:16;;;;;;;3.30;2.80;;;;;;;9.89;99.13;101261.52;103770;1310;22588;-60
2024/02/17 05:46:42;;;;;;;3.20;2.70;;;;;;;9.89;99.23;101266.67;103753;1310;22609;-62
2024/02/17 05:49:09;;;;;;;3.00;2.70;;;;;;;9.89;99.60;101267.88;103571;1310;22823;-60
2024/02/17 05:51:35;;;;;;;3.30;2.70;;;;;;;9.87;99.51;101272.58;103818;1294;25395;-59
2024/02/17 05:54:00;;;;;;;2.70;2.50;;;;;;;9.84;99.17;101274.81;103865;1297;22701;-57
2024/02/17 05:56:26;;;;;;;6.90;3.00;;;;;;;9.83;99.09;101278.77;103564;1311;24431;-60
2024/02/17 05:58:51;;;;;;;3.80;2.40;;;;;;;9.80;99.09;101285.85;103874;1310;22616;-59
2024/02/17 06:01:17;;;;;;;2.50;2.30;;;;;;;9.78;99.20;101288.60;103661;1300;86422;-59
2024/02/17 06:03:43;;;;;;;2.90;2.60;;;;;;;9.77;99.36;101290.15;103711;1307;25299;-59
2024/02/17 06:06:08;;;;;;;3.20;2.30;;;;;;;9.74;99.42;101291.71;103774;1301;24359;-59
2024/02/17 06:08:34;;;;;;;4.10;2.40;;;;;;;9.72;99.04;101293.60;103714;1310;22952;-58
2024/02/17 06:10:59;;;;;;;3.80;2.70;;;;;;;9.74;99.39;101300.66;103863;1292;24390;-57
2024/02/17 06:13:25;;;;;;;2.60;2.40;;;;;;;9.72;99.28;101304.96;103923;1310;22566;-60
2024/02/17 06:15:50;;;;;;;3.10;2.20;;;;;;;9.71;99.42;101310.66;103986;1304;26466;-59
2024/02/17 06:21:10;;;;;;;3.70;2.80;;;;;;;9.69;99.09;101313.75;103779;1292;24298;-58
2024/02/17 06:23:40;;;;;;;3.10;2.80;;;;;;;9.70;99.44;101313.92;103648;1311;22834;-58
2024/02/17 06:26:06;;;;;;;3.50;3.20;;;;;;;9.69;99.85;101320.47;104274;1304;22614;-59
2024/02/17 06:28:32;;;;;;;4.90;3.30;;;;;;;9.67;99.88;101320.47;103776;1310;23629;-59
2024/02/17 06:30:57;;;;;;;4.60;3.90;;;;;;;9.68;99.90;101325.46;103724;1290;22664;-60
2024/02/17 06:33:23;;;;;;;4.40;4.10;;;;;;;9.68;99.91;101325.81;103604;1289;23091;-60
2024/02/17 06:35:49;;;;;;;3.90;3.60;;;;;;;9.69;99.88;101330.96;103741;1308;22577;-58
2024/02/17 06:38:15;;;;;;;5.50;4.90;;;;;;;9.67;99.97;101330.63;103823;1310;22586;-60
2024/02/17 06:40:41;;;;;;;5.50;4.80;;;;;;;9.67;99.98;101330.11;103843;1288;23972;-59
2024/02/17 06:43:07;;;;;;;4.50;3.60;;;;;;;9.66;99.94;101333.05;103747;1310;22573;-61
2024/02/17 06:45:42;;;;;;;4.90;3.70;;;;;;;9.66;99.88;101336.14;103779;1304;26573;-60
2024/02/17 06:48:08;;;;;;;5.00;3.90;;;;;;;9.66;99.93;101338.89;107123;1304;23064;-61
2024/02/17 06:50:33;;;;;;;5.00;3.50;;;;;;;9.67;99.99;101337.86;107357;1310;22279;-59
2024/02/17 06:53:30;;;;;;;4.70;3.90;;;;;;;9.66;100.00;101338.03;107352;1291;22360;-61
2024/02/17 06:55:55;;;;;;;9.70;3.80;;;;;;;9.65;100.00;101338.03;107348;1311;22151;-60
2024/02/17 06:58:21;;;;;;;3.50;3.20;;;;;;;9.66;100.00;101340.27;107375;1310;22450;-60
2024/02/17 07:00:47;;;;;;;4.10;3.70;;;;;;;9.65;100.00;101340.44;107306;1305;22399;-60
2024/02/17 07:03:14;;;;;;;4.90;3.90;;;;;;;9.64;100.00;101344.23;107032;1289;22448;-60
2024/02/17 07:05:41;;;;;;;3.70;3.20;;;;;;;9.67;100.00;101346.98;103790;1310;22563;-59
2024/02/17 07:08:08;;;;;;;4.20;3.80;;;;;;;9.68;100.00;101349.56;103730;1310;25367;-58
2024/02/17 07:10:35;;;;;;;4.40;4.00;;;;;;;9.71;100.00;101354.90;107265;1303;22251;-59
2024/02/17 07:13:05;;;;;;;5.80;4.20;;;;;;;9.72;100.00;101355.59;107334;1291;22311;-61
2024/02/17 07:15:31;;;;;;;5.60;3.40;;;;;;;9.71;100.00;101363.33;107291;1310;22269;-60
2024/02/17 07:18:03;;;;;;;7.40;4.30;;;;;;;9.70;100.00;101363.52;107374;1310;22257;-61
2024/02/17 07:20:32;;;;;;;5.20;4.80;;;;;;;9.68;100.00;101362.65;107388;1310;22387;-61
2024/02/17 07:23:01;;;;;;;5.20;4.70;;;;;;;9.64;100.00;101369.20;107259;1294;22269;-61
2024/02/17 07:25:27;;;;;;;5.80;4.60;;;;;;;9.60;100.00;101377.80;107303;1309;22255;-61
2024/02/17 07:27:59;;;;;;;4.70;4.30;;;;;;;9.60;100.00;101384.34;107219;1310;22374;-59
2024/02/17 07:30:28;;;;;;;5.10;4.60;;;;;;;9.60;100.00;101387.43;107267;1310;22499;-61
2024/02/17 07:32:54;;;;;;;6.30;4.50;;;;;;;9.58;100.00;101388.98;107239;1289;22329;-61
2024/02/17 07:35:22;;;;;;;5.40;4.90;;;;;;;9.61;100.00;101395.52;107370;1310;22270;-60
2024/02/17 07:37:47;;;;;;;6.90;4.80;;;;;;;9.62;100.00;101401.73;107279;1310;22837;-60
2024/02/17 07:40:13;;;;;;;5.30;4.80;;;;;;;9.66;100.00;101400.02;107306;1311;22218;-59
2024/02/17 07:42:38;;;;;;;4.50;4.10;;;;;;;9.68;100.00;101402.59;107306;1290;22783;-60
2024/02/17 07:45:04;;;;;;;5.00;4.50;;;;;;;9.72;100.00;101411.89;107112;1310;23520;-60
2024/02/17 07:47:33;;;;;;;5.00;4.60;;;;;;;9.74;100.00;101419.12;107306;1310;23001;-60
2024/02/17 07:50:00;;;;;;;8.50;5.00;;;;;;;9.76;100.00;101420.67;107089;1307;22312;-61
2024/02/17 07:52:26;;;;;;;5.60;5.00;;;;;;;9.82;100.00;101420.33;107307;1289;22987;-61
2024/02/17 07:54:51;;;;;;;5.70;4.70;;;;;;;9.86;100.00;101419.63;107437;1305;23314;-60
2024/02/17 07:57:40;;;;;;;5.80;5.30;;;;;;;9.92;100.00;101420.48;107430;1310;22247;-60
2024/02/17 08:00:06;;;;;;;7.90;5.00;;;;;;;9.97;100.00;101420.81;107392;1305;22248;-60
2024/02/17 08:02:32;;;;;;;5.80;5.30;;;;;;;9.97;100.00;101421.84;107325;1287;23058;-61
2024/02/17 08:05:07;;;;;;;5.00;4.60;;;;;;;9.94;100.00;101422.35;107288;1310;22259;-61
2024/02/17 08:07:35;;;;;;;5.20;4.80;;;;;;;9.91;100.00;101423.73;107200;1310;22257;-60
2024/02/17 08:10:01;;;;;;;4.90;4.40;;;;;;;10.02;100.00;101418.39;107173;1305;22419;-62
2024/02/17 08:12:34;;;;;;;5.60;4.50;;;;;;;10.21;100.00;101416.33;107285;1289;22336;-61
2024/02/17 08:15:11;;;;;;;;;;;;;;;;;;;;;
2024/02/17 08:17:38;;;;;;;6.00;5.30;;;;;;;10.35;100.00;101432.00;107393;1304;22315;-60
2024/02/17 08:20:05;;;;;;;9.70;5.20;;;;;;;10.43;100.00;101430.58;107307;1307;22367;-61
2024/02/17 08:22:39;;;;;;;6.10;4.70;;;;;;;10.50;100.00;101433.48;107390;1310;23139;-61
2024/02/17 08:25:09;;;;;;;4.00;3.70;;;;;;;10.65;100.00;101432.41;107317;1291;22285;-60
2024/02/17 08:27:39;;;;;;;6.30;5.40;;;;;;;10.85;100.00;101432.00;107320;1303;23224;-61
2024/02/17 08:30:08;;;;;;;5.50;3.40;;;;;;;11.00;99.89;101434.49;107297;1303;23183;-61
2024/02/17 08:32:34;;;;;;;4.00;3.60;;;;;;;10.98;99.27;101434.50;107316;1309;22245;-61
2024/02/17 08:35:10;;;;;;;4.20;3.80;;;;;;;10.98;99.50;101438.81;107311;1292;22436;-60
2024/02/17 08:37:36;;;;;;;4.00;3.30;;;;;;;10.99;99.37;101441.23;107344;1308;22251;-61
2024/02/17 08:40:04;;;;;;;3.80;3.40;;;;;;;10.97;98.75;101442.44;107380;1310;22266;-61
2024/02/17 08:42:30;;;;;;;4.30;3.40;;;;;;;10.92;98.91;101446.78;106334;1310;25063;-60
2024/02/17 08:44:56;;;;;;;4.60;4.20;;;;;;;10.91;99.37;101448.34;103779;1310;22577;-60
2024/02/17 08:47:23;;;;;;;16.80;11.90;;;;;;;10.88;98.41;101450.09;103668;1310;22996;-60
2024/02/17 08:49:49;;;;;;;4.40;3.40;;;;;;;10.78;98.00;101450.98;103624;1307;22565;-56
2024/02/17 08:52:15;;;;;;;5.00;3.30;;;;;;;10.76;98.40;101456.35;103721;1310;25367;-60
2024/02/17 08:54:41;;;;;;;3.80;3.50;;;;;;;10.75;98.36;101455.84;103787;1303;25716;-59
2024/02/17 08:57:07;;;;;;;3.80;3.40;;;;;;;10.70;98.16;101452.92;103931;1295;25954;-60
2024/02/17 08:59:33;;;;;;;3.20;2.90;;;;;;;10.64;97.90;101454.31;103840;1310;26686;-60
2024/02/17 09:01:59;;;;;;;3.90;3.60;;;;;;;10.54;97.75;101458.99;103799;1310;26611;-60
2024/02/17 09:04:25;;;;;;;5.20;3.20;;;;;;;10.49;98.06;101462.11;103827;1291;23491;-60
2024/02/17 09:06:51;;;;;;;3.60;3.30;;;;;;;10.49;98.18;101464.00;103746;1306;26362;-60
2024/02/17 09:09:17;;;;;;;2.80;2.60;;;;;;;10.48;97.99;101466.25;103628;1311;23078;-60
2024/02/17 09:11:45;;;;;;;3.70;3.40;;;;;;;10.50;98.24;101472.27;103774;1310;24343;-60
2024/02/17 09:14:10;;;;;;;5.30;3.10;;;;;;;10.53;98.18;101473.98;103759;1289;22612;-59
2024/02/17 09:16:36;;;;;;;3.60;3.10;;;;;;;10.52;97.83;101477.27;103783;1310;22581;-60
2024/02/17 09:19:02;;;;;;;6.10;3.10;;;;;;;10.49;97.93;101478.65;103893;1305;24664;-59
2024/02/17 09:21:29;;;;;;;4.30;3.10;;;;;;;10.48;97.70;101481.42;103625;1310;22580;-60
2024/02/17 09:23:55;;;;;;;3.40;3.10;;;;;;;10.45;97.94;101486.93;103739;1288;24238;-58
2024/02/17 09:26:21;;;;;;;4.10;3.40;;;;;;;10.46;97.72;101488.83;103794;1304;22641;-59
2024/02/17 09:28:47;;;;;;;3.80;3.50;;;;;;;10.43;97.50;101490.73;103779;1310;22843;-58
2024/02/17 09:31:12;;;;;;;4.30;3.70;;;;;;;10.48;97.85;101497.11;103762;1310;23811;-59
2024/02/17 09:33:38;;;;;;;5.10;3.00;;;;;;;10.51;97.74;101496.75;103757;1305;22574;-59
2024/02/17 09:36:06;;;;;;;3.30;3.00;;;;;;;10.54;97.66;101497.27;103927;1291;22536;-60
2024/02/17 09:38:32;;;;;;;6.90;4.60;;;;;;;10.53;97.17;101500.38;106045;1310;22614;-60
2024/02/17 09:40:59;;;;;;;2.90;2.60;;;;;;;10.50;96.94;101506.76;103855;1304;22588;-58
2024/02/17 09:43:25;;;;;;;3.00;2.60;;;;;;;10.47;96.69;101511.23;107348;1305;22970;-61
2024/02/17 09:45:51;;;;;;;2.80;2.50;;;;;;;10.45;96.76;101514.86;107214;1292;22326;-61
2024/02/17 09:48:17;;;;;;;8.60;2.30;;;;;;;10.46;96.92;101520.89;107274;1305;23191;-60
2024/02/17 09:50:44;;;;;;;4.70;2.40;;;;;;;10.45;96.46;101521.76;107275;1310;23031;-60
2024/02/17 09:53:12;;;;;;;2.70;2.40;;;;;;;10.43;96.59;101524.52;107073;1306;23232;-60
2024/02/17 09:55:37;;;;;;;3.30;3.00;;;;;;;10.46;96.37;101530.38;107283;1291;22277;-61
2024/02/17 09:58:08;;;;;;;2.60;2.40;;;;;;;10.45;95.60;101531.41;107281;1310;22436;-61
2024/02/17 10:00:34;;;;;;;3.00;2.60;;;;;;;10.44;95.90;101540.38;107370;1309;22326;-59
2024/02/17 10:03:00;;;;;;;3.70;2.60;;;;;;;10.49;96.14;101543.98;107384;1310;23057;-61
2024/02/17 10:05:27;;;;;;;2.70;2.00;;;;;;;10.52;95.78;101547.79;107413;1310;22393;-61
2024/02/17 10:07:54;;;;;;;3.50;2.30;;;;;;;10.51;95.51;101552.61;107269;1305;22425;-59
2024/02/17 10:10:21;;;;;;;4.70;4.10;;;;;;;10.50;95.32;101551.40;107297;1306;22949;-59
2024/02/17 10:12:50;;;;;;;4.10;2.40;;;;;;;10.51;95.33;101554.86;107121;1310;22738;-60
2024/02/17 10:15:46;;;;;;;3.00;2.60;;;;;;;10.50;95.47;101558.65;107246;1288;23071;-61
2024/02/17 10:18:14;;;;;;;5.00;2.50;;;;;;;10.49;95.22;101561.23;107393;1310;22269;-59
2024/02/17 10:20:42;;;;;;;2.50;2.30;;;;;;;10.42;95.17;101568.13;107301;1310;22814;-60
2024/02/17 10:23:08;;;;;;;5.20;2.30;;;;;;;10.34;95.15;101576.42;107349;1310;22306;-60
2024/02/17 10:25:38;;;;;;;3.20;2.90;;;;;;;10.29;95.19;101577.11;107326;1287;22312;-61
2024/02/17 10:28:05;;;;;;;3.40;2.00;;;;;;;10.22;95.16;101575.38;104916;1307;3190308;-60
2024/02/17 10:30:35;;;;;;;4.60;1.90;;;;;;;10.12;95.12;101579.64;107290;1307;22963;-58
2024/02/17 10:33:11;;;;;;;4.10;2.10;;;;;;;10.03;95.38;101582.39;107291;1303;22352;-61
2024/02/17 10:35:53;;;;;;;;;;;;;;;;;;;;;
2024/02/17 10:38:19;;;;;;;1.80;1.40;;;;;;;9.93;95.38;101580.81;107398;1310;23400;-61
2024/02/17 10:40:47;;;;;;;1.50;1.40;;;;;;;9.89;95.10;101581.66;107360;1305;22336;-61
2024/02/17 10:43:13;;;;;;;1.60;1.10;;;;;;;9.85;94.88;101581.33;107155;1307;293845;-59
2024/02/17 10:45:39;;;;;;;5.30;1.30;;;;;;;9.82;94.42;101588.23;107372;1288;22434;-61
2024/02/17 10:48:07;;;;;;;5.60;1.00;;;;;;;9.80;94.05;101587.36;107291;1288;22306;-61
2024/02/17 10:50:41;;;;;;;2.80;1.30;;;;;;;9.77;93.26;101587.35;104562;1310;23606;-58
2024/02/17 10:53:16;;;;;;;1.70;0.90;;;;;;;9.76;93.50;101588.73;104148;1304;22562;-60
2024/02/17 10:55:44;;;;;;;2.60;1.00;;;;;;;9.81;93.47;101590.63;103835;1289;22589;-60
2024/02/17 10:58:16;;;;;;;1.60;1.00;;;;;;;9.88;93.59;101595.11;104008;1291;22592;-60
2024/02/17 11:00:46;;;;;;;1.30;0.80;;;;;;;9.92;92.09;101597.35;103988;1310;26667;-59
2024/02/17 11:03:16;;;;;;;2.30;1.10;;;;;;;9.99;92.97;101605.28;104038;1310;22579;-59
2024/02/17 11:05:46;;;;;;;2.60;1.00;;;;;;;10.16;93.51;101608.44;103985;1295;22556;-60
2024/02/17 11:08:12;;;;;;;1.70;1.00;;;;;;;10.33;92.50;101608.14;103733;1294;25132;-60
2024/02/17 11:10:41;;;;;;;0.90;0.80;;;;;;;10.51;92.82;101609.84;103902;1310;22707;-60
2024/02/17 11:13:21;;;;;;;1.30;0.80;;;;;;;10.71;91.27;101612.08;103828;1310;23110;-59
2024/02/17 11:16:04;;;;;;;2.20;0.80;;;;;;;11.02;91.42;101612.02;103771;1304;25346;-59
2024/02/17 11:18:37;;;;;;;378.60;132.20;;;;;;;11.49;90.29;101614.46;103913;1292;23996;-60